createdAt,value
2022-11-07T00:00:36.058Z,72.25
2022-11-07T00:03:24.474Z,67.88
2022-11-07T00:06:07.904Z,80.35
2022-11-07T00:08:55.085Z,85.60
2022-11-07T00:11:33.154Z,82.78
2022-11-07T00:14:26.883Z,63.75
2022-11-07T00:17:04.765Z,82.72
2022-11-07T00:19:51.061Z,82.68
2022-11-07T00:22:46.263Z,83.45
2022-11-07T00:25:30.055Z,80.95
2022-11-07T00:28:16.479Z,82.53
2022-11-07T00:30:58.007Z,86.05
2022-11-07T00:33:41.592Z,88.82
2022-11-07T00:36:25.509Z,80.43
2022-11-07T00:39:13.723Z,82.15
2022-11-07T00:41:54.553Z,89.50
2022-11-07T00:44:37.180Z,88.28
2022-11-07T00:47:18.136Z,100.25
2022-11-07T00:50:05.078Z,87.07
2022-11-07T00:52:47.401Z,92.38
2022-11-07T00:55:28.071Z,82.50
2022-11-07T00:58:14.232Z,89.50
2022-11-07T01:01:12.715Z,84.55
2022-11-07T01:04:32.248Z,80.63
2022-11-07T01:07:15.993Z,76.05
2022-11-07T01:10:06.199Z,91.97
2022-11-07T01:12:45.250Z,85.82
2022-11-07T01:15:22.924Z,84.50
2022-11-07T01:18:15.468Z,82.55
2022-11-07T01:20:57.192Z,84.20
2022-11-07T01:23:38.180Z,89.00
2022-11-07T01:26:17.154Z,80.20
2022-11-07T01:29:05.032Z,72.15
2022-11-07T01:31:47.324Z,77.93
2022-11-07T01:34:33.994Z,99.07
2022-11-07T01:37:21.299Z,73.90
2022-11-07T01:40:08.962Z,78.32
2022-11-07T01:42:50.062Z,79.45
2022-11-07T01:45:38.144Z,56.10
2022-11-07T01:48:19.201Z,74.25
2022-11-07T01:51:09.584Z,65.75
2022-11-07T01:53:56.511Z,68.65
2022-11-07T01:56:39.090Z,63.83
2022-11-07T01:59:30.889Z,74.78
2022-11-07T02:02:16.581Z,65.60
2022-11-07T02:05:02.448Z,60.83
2022-11-07T02:07:50.185Z,62.72
2022-11-07T02:10:47.231Z,63.63
2022-11-07T02:13:29.998Z,60.85
2022-11-07T02:16:13.059Z,61.90
2022-11-07T02:18:57.677Z,64.45
2022-11-07T02:22:05.161Z,57.97
2022-11-07T02:25:01.460Z,66.47
2022-11-07T02:27:46.473Z,68.05
2022-11-07T02:30:45.726Z,64.30
2022-11-07T02:33:32.439Z,63.30
2022-11-07T02:36:14.675Z,61.00
2022-11-07T02:39:02.269Z,63.05
2022-11-07T02:41:49.178Z,60.45
2022-11-07T02:44:36.541Z,59.95
2022-11-07T02:47:20.185Z,56.15
2022-11-07T02:52:52.230Z,52.65
2022-11-07T02:55:41.952Z,52.38
2022-11-07T02:58:24.009Z,50.75
2022-11-07T03:01:12.367Z,54.45
2022-11-07T03:03:55.975Z,50.40
2022-11-07T03:09:28.759Z,45.03
2022-11-07T03:12:16.009Z,47.97
2022-11-07T03:14:59.291Z,54.53
2022-11-07T03:17:44.969Z,52.72
2022-11-07T03:20:29.285Z,63.38
2022-11-07T03:23:04.396Z,52.78
2022-11-07T03:25:42.027Z,47.63
2022-11-07T03:28:29.842Z,50.55
2022-11-07T03:31:06.503Z,51.47
2022-11-07T03:33:48.511Z,55.05
2022-11-07T03:36:34.104Z,52.20
2022-11-07T03:39:25.463Z,56.58
2022-11-07T03:42:09.870Z,61.10
2022-11-07T03:44:53.302Z,56.42
2022-11-07T03:47:41.961Z,63.55
2022-11-07T03:50:23.923Z,57.00
2022-11-07T03:53:01.283Z,58.15
2022-11-07T03:55:50.188Z,56.60
2022-11-07T03:58:33.740Z,55.10
2022-11-07T04:01:15.941Z,58.35
2022-11-07T04:04:03.040Z,60.67
2022-11-07T04:06:50.765Z,64.55
2022-11-07T04:09:29.202Z,61.33
2022-11-07T04:12:28.531Z,58.80
2022-11-07T04:15:30.687Z,59.03
2022-11-07T04:18:15.064Z,57.05
2022-11-07T04:20:53.191Z,59.80
2022-11-07T04:23:50.580Z,64.10
2022-11-07T04:26:47.613Z,64.35
2022-11-07T04:29:45.983Z,57.78
2022-11-07T04:32:31.808Z,58.13
2022-11-07T04:35:16.448Z,58.88
2022-11-07T04:37:54.343Z,60.33
2022-11-07T04:40:38.057Z,56.22
2022-11-07T04:43:18.905Z,48.25
2022-11-07T04:46:01.828Z,49.67
2022-11-07T04:48:46.697Z,53.20
2022-11-07T04:51:35.743Z,50.65
2022-11-07T04:54:10.008Z,49.47
2022-11-07T04:56:55.423Z,54.83
2022-11-07T04:59:43.913Z,58.33
2022-11-07T05:02:27.682Z,58.83
2022-11-07T05:05:16.236Z,52.35
2022-11-07T05:07:58.007Z,59.83
2022-11-07T05:10:40.031Z,54.85
2022-11-07T05:13:25.016Z,70.15
2022-11-07T05:16:06.075Z,65.30
2022-11-07T05:18:55.098Z,70.32
2022-11-07T05:21:44.908Z,60.35
2022-11-07T05:24:32.590Z,74.82
2022-11-07T05:27:21.387Z,66.95
2022-11-07T05:30:02.135Z,66.78
2022-11-07T05:33:04.244Z,61.27
2022-11-07T05:35:49.083Z,71.45
2022-11-07T05:38:37.618Z,66.00
2022-11-07T05:41:26.842Z,61.58
2022-11-07T05:44:09.578Z,63.38
2022-11-07T05:46:52.890Z,60.83
2022-11-07T05:49:45.000Z,64.65
2022-11-07T05:52:28.928Z,59.85
2022-11-07T05:55:10.669Z,62.42
2022-11-07T05:57:56.261Z,53.03
2022-11-07T06:00:48.212Z,72.28
2022-11-07T06:03:29.362Z,61.10
2022-11-07T06:06:14.620Z,70.97
2022-11-07T06:09:04.595Z,62.63
2022-11-07T06:11:45.994Z,62.33
2022-11-07T06:14:28.171Z,64.60
2022-11-07T06:17:04.948Z,64.93
2022-11-07T06:19:51.138Z,77.45
2022-11-07T06:22:30.046Z,77.47
2022-11-07T06:25:16.019Z,71.70
2022-11-07T06:27:56.388Z,69.95
2022-11-07T06:30:35.554Z,75.70
2022-11-07T06:33:25.895Z,68.60
2022-11-07T06:36:09.894Z,66.07
2022-11-07T06:41:37.996Z,64.75
2022-11-07T06:44:25.594Z,70.32
2022-11-07T06:47:04.007Z,83.53
2022-11-07T06:49:53.117Z,77.60
2022-11-07T06:52:31.758Z,73.38
2022-11-07T06:55:15.576Z,74.07
2022-11-07T06:58:03.971Z,79.05
2022-11-07T07:00:51.036Z,82.72
2022-11-07T07:03:43.051Z,70.93
2022-11-07T07:06:27.755Z,81.55
2022-11-07T07:09:11.038Z,79.57
2022-11-07T07:11:52.037Z,86.55
2022-11-07T07:14:42.049Z,80.78
2022-11-07T07:17:24.013Z,84.78
2022-11-07T07:20:04.920Z,101.78
2022-11-07T07:22:59.081Z,84.60
2022-11-07T07:25:43.987Z,87.25
2022-11-07T07:28:35.998Z,88.20
2022-11-07T07:31:32.623Z,86.55
2022-11-07T07:34:08.687Z,83.18
2022-11-07T07:36:54.990Z,91.18
2022-11-07T07:39:39.021Z,81.43
2022-11-07T07:42:16.735Z,81.30
2022-11-07T07:45:00.610Z,75.75
2022-11-07T07:50:44.335Z,71.22
2022-11-07T07:53:36.378Z,73.10
2022-11-07T07:56:21.009Z,76.68
2022-11-07T07:59:05.778Z,67.90
2022-11-07T08:01:53.531Z,63.40
2022-11-07T08:04:36.806Z,72.68
2022-11-07T08:07:25.908Z,57.53
2022-11-07T08:10:27.053Z,63.50
2022-11-07T08:13:04.969Z,67.07
2022-11-07T08:15:49.062Z,62.75
2022-11-07T08:18:35.793Z,65.20
2022-11-07T08:21:20.112Z,60.20
2022-11-07T08:24:04.235Z,56.60
2022-11-07T08:26:45.856Z,58.03
2022-11-07T08:29:30.864Z,62.03
2022-11-07T08:32:30.661Z,55.35
2022-11-07T08:35:23.767Z,55.85
2022-11-07T08:38:08.200Z,57.25
2022-11-07T08:40:55.139Z,55.63
2022-11-07T08:43:48.874Z,53.60
2022-11-07T08:46:37.950Z,58.90
2022-11-07T08:49:33.003Z,57.40
2022-11-07T08:52:16.435Z,54.42
2022-11-07T08:55:05.270Z,55.25
2022-11-07T08:57:45.910Z,59.22
2022-11-07T09:00:34.015Z,48.80
2022-11-07T09:03:44.309Z,51.25
2022-11-07T09:06:18.094Z,54.42
2022-11-07T09:09:01.521Z,49.40
2022-11-07T09:11:43.019Z,51.25
2022-11-07T09:14:26.818Z,53.63
2022-11-07T09:17:08.030Z,56.67
2022-11-07T09:19:54.029Z,53.67
2022-11-07T09:22:46.916Z,51.80
2022-11-07T09:25:42.258Z,53.45
2022-11-07T09:28:20.209Z,52.38
2022-11-07T09:31:14.544Z,50.35
2022-11-07T09:33:57.970Z,51.50
2022-11-07T09:39:53.320Z,58.83
2022-11-07T09:43:30.103Z,53.30
2022-11-07T09:46:23.496Z,43.95
2022-11-07T09:49:25.936Z,41.33
2022-11-07T09:52:23.133Z,46.28
2022-11-07T09:55:38.104Z,46.33
2022-11-07T09:58:30.997Z,46.50
2022-11-07T10:01:11.562Z,41.83
2022-11-07T10:04:23.733Z,37.33
2022-11-07T10:07:26.960Z,33.25
2022-11-07T10:10:25.585Z,29.55
2022-11-07T10:13:21.328Z,29.27
2022-11-07T10:16:44.653Z,31.70
2022-11-07T10:19:52.121Z,26.33
2022-11-07T10:22:46.373Z,26.30
2022-11-07T10:25:50.237Z,23.02
2022-11-07T10:28:37.241Z,19.08
2022-11-07T10:31:28.412Z,24.75
2022-11-07T10:34:40.635Z,17.67
2022-11-07T10:37:24.523Z,19.27
2022-11-07T10:40:21.688Z,20.13
2022-11-07T10:43:10.857Z,14.40
2022-11-07T10:45:55.726Z,12.65
2022-11-07T10:49:00.723Z,15.18
2022-11-07T10:51:51.319Z,14.70
2022-11-07T10:54:36.957Z,13.90
2022-11-07T10:57:25.557Z,14.60
2022-11-07T11:00:12.374Z,12.88
2022-11-07T11:03:05.518Z,15.73
2022-11-07T11:06:03.165Z,12.18
2022-11-07T11:08:56.800Z,11.65
2022-11-07T11:11:47.538Z,15.80
2022-11-07T11:14:25.571Z,10.70
2022-11-07T11:17:14.517Z,9.73
2022-11-07T11:20:33.063Z,7.97
2022-11-07T11:23:33.771Z,8.90
2022-11-07T11:26:30.435Z,12.27
2022-11-07T11:29:19.068Z,20.15
2022-11-07T11:32:10.213Z,12.13
2022-11-07T11:35:11.026Z,11.43
2022-11-07T11:38:01.341Z,13.80
2022-11-07T11:41:04.717Z,12.95
2022-11-07T11:44:11.508Z,13.18
2022-11-07T11:46:56.904Z,16.38
2022-11-07T11:49:51.265Z,14.18
2022-11-07T11:52:35.659Z,14.45
2022-11-07T11:55:28.322Z,13.15
2022-11-07T11:58:38.421Z,11.73
2022-11-07T12:01:48.412Z,13.50
2022-11-07T12:05:03.973Z,17.08
2022-11-07T12:07:59.006Z,18.35
2022-11-07T12:10:59.976Z,15.68
2022-11-07T12:14:14.414Z,12.65
2022-11-07T12:16:59.043Z,10.32
2022-11-07T12:19:52.218Z,12.65
2022-11-07T12:22:57.622Z,14.25
2022-11-07T12:25:49.345Z,16.88
2022-11-07T12:28:45.711Z,13.18
2022-11-07T12:31:57.301Z,19.52
2022-11-07T12:35:12.006Z,16.02
2022-11-07T12:38:04.063Z,13.38
2022-11-07T12:41:25.374Z,12.88
2022-11-07T12:44:35.961Z,15.32
2022-11-07T12:47:33.960Z,23.35
2022-11-07T12:50:33.655Z,13.35
2022-11-07T12:53:38.002Z,12.88
2022-11-07T12:56:41.059Z,13.43
2022-11-07T12:59:42.205Z,14.02
2022-11-07T13:02:38.488Z,14.35
2022-11-07T13:05:38.367Z,17.38
2022-11-07T13:09:03.434Z,12.20
2022-11-07T13:14:58.026Z,20.73
2022-11-07T13:17:49.161Z,18.90
2022-11-07T13:20:45.614Z,20.05
2022-11-07T13:23:44.505Z,13.65
2022-11-07T13:26:47.979Z,10.18
2022-11-07T13:29:44.910Z,12.00
2022-11-07T13:32:23.046Z,14.15
2022-11-07T13:35:29.131Z,16.92
2022-11-07T13:38:21.971Z,17.15
2022-11-07T13:41:10.133Z,11.50
2022-11-07T13:43:58.512Z,9.98
2022-11-07T13:47:05.870Z,11.75
2022-11-07T13:49:55.642Z,12.18
2022-11-07T13:52:59.149Z,16.58
2022-11-07T13:55:50.983Z,9.68
2022-11-07T13:58:38.982Z,10.18
2022-11-07T14:01:22.746Z,13.23
2022-11-07T14:04:11.521Z,15.45
2022-11-07T14:07:01.406Z,10.52
2022-11-07T14:09:38.024Z,14.63
2022-11-07T14:12:27.422Z,15.68
2022-11-07T14:15:39.854Z,10.18
2022-11-07T14:18:34.236Z,10.30
2022-11-07T14:21:31.787Z,12.88
2022-11-07T14:24:27.426Z,13.27
2022-11-07T14:27:26.010Z,11.68
2022-11-07T14:30:03.670Z,14.73
2022-11-07T14:33:11.898Z,10.60
2022-11-07T14:35:56.666Z,11.40
2022-11-07T14:38:36.083Z,11.60
2022-11-07T14:41:24.562Z,10.57
2022-11-07T14:44:08.895Z,8.63
2022-11-07T14:46:57.443Z,10.88
2022-11-07T14:49:49.146Z,8.18
2022-11-07T14:52:40.703Z,9.52
2022-11-07T14:55:30.320Z,8.55
2022-11-07T14:58:17.822Z,8.73
2022-11-07T15:01:03.516Z,11.05
2022-11-07T15:03:56.588Z,11.25
2022-11-07T15:06:44.101Z,11.30
2022-11-07T15:09:35.689Z,9.30
2022-11-07T15:12:54.148Z,8.98
2022-11-07T15:15:49.440Z,8.77
2022-11-07T15:18:37.240Z,14.18
2022-11-07T15:21:50.379Z,15.45
2022-11-07T15:24:54.255Z,12.48
2022-11-07T15:27:46.998Z,13.32
2022-11-07T15:30:38.280Z,11.55
2022-11-07T15:33:24.734Z,10.75
2022-11-07T15:36:13.966Z,12.40
2022-11-07T15:39:03.142Z,12.20
2022-11-07T15:42:00.900Z,9.48
2022-11-07T15:45:00.820Z,14.15
2022-11-07T15:47:49.083Z,18.17
2022-11-07T15:50:43.728Z,12.77
2022-11-07T15:53:35.961Z,21.98
2022-11-07T15:56:18.852Z,49.03
2022-11-07T15:59:34.711Z,40.25
2022-11-07T16:02:31.032Z,27.83
2022-11-07T16:05:20.950Z,24.15
2022-11-07T16:11:20.941Z,38.60
2022-11-07T16:14:21.644Z,31.75
2022-11-07T16:17:18.771Z,23.63
2022-11-07T16:20:01.700Z,30.70
2022-11-07T16:22:48.393Z,21.30
2022-11-07T16:25:28.438Z,20.58
2022-11-07T16:28:39.161Z,29.55
2022-11-07T16:31:32.496Z,22.30
2022-11-07T16:34:24.916Z,29.03
2022-11-07T16:37:08.441Z,30.48
2022-11-07T16:40:09.130Z,34.17
2022-11-07T16:43:12.412Z,25.40
2022-11-07T16:45:59.894Z,25.02
2022-11-07T16:48:55.241Z,22.27
2022-11-07T16:51:40.100Z,27.48
2022-11-07T16:54:17.982Z,21.88
2022-11-07T16:57:10.065Z,23.42
2022-11-07T16:59:56.035Z,23.15
2022-11-07T17:02:57.546Z,27.58
2022-11-07T17:05:38.266Z,27.38
2022-11-07T17:08:39.145Z,38.05
2022-11-07T17:11:38.434Z,35.72
2022-11-07T17:14:20.898Z,62.28
2022-11-07T17:17:20.055Z,78.97
2022-11-07T17:20:50.331Z,70.85
2022-11-07T17:23:52.656Z,79.47
2022-11-07T17:26:43.486Z,73.88
2022-11-07T17:29:26.415Z,86.68
2022-11-07T17:32:21.204Z,76.13
2022-11-07T17:35:31.158Z,63.13
2022-11-07T17:38:28.297Z,53.97
2022-11-07T17:41:17.282Z,41.28
2022-11-07T17:44:06.531Z,43.70
2022-11-07T17:46:54.757Z,44.90
2022-11-07T17:49:40.957Z,43.42
2022-11-07T17:52:32.237Z,49.83
2022-11-07T17:55:11.201Z,39.30
2022-11-07T17:57:55.493Z,41.60
2022-11-07T18:00:44.549Z,33.38
2022-11-07T18:03:46.268Z,31.17
2022-11-07T18:06:33.244Z,26.13
2022-11-07T18:09:13.875Z,35.70
2022-11-07T18:11:58.389Z,27.48
2022-11-07T18:14:41.854Z,27.73
2022-11-07T18:17:27.520Z,26.70
2022-11-07T18:20:13.909Z,27.05
2022-11-07T18:23:00.254Z,22.92
2022-11-07T18:25:52.012Z,21.92
2022-11-07T18:28:42.694Z,21.80
2022-11-07T18:31:25.145Z,25.33
2022-11-07T18:34:19.715Z,24.10
2022-11-07T18:36:58.982Z,23.63
2022-11-07T18:39:39.681Z,23.98
2022-11-07T18:42:31.957Z,25.88
2022-11-07T18:45:15.226Z,24.02
2022-11-07T18:48:04.903Z,33.72
2022-11-07T18:50:46.281Z,31.30
2022-11-07T18:53:37.071Z,36.40
2022-11-07T18:56:31.959Z,31.88
2022-11-07T18:59:31.485Z,35.58
2022-11-07T19:02:18.166Z,34.40
2022-11-07T19:05:01.028Z,30.92
2022-11-07T19:07:44.877Z,35.33
2022-11-07T19:10:23.330Z,37.60
2022-11-07T19:13:07.949Z,33.50
2022-11-07T19:16:04.690Z,49.75
2022-11-07T19:18:49.400Z,45.92
2022-11-07T19:21:35.333Z,48.17
2022-11-07T19:24:13.400Z,45.75
2022-11-07T19:26:55.828Z,50.80
2022-11-07T19:29:37.895Z,67.97
2022-11-07T19:32:32.496Z,72.85
2022-11-07T19:35:10.908Z,67.70
2022-11-07T19:37:57.126Z,70.68
2022-11-07T19:40:43.085Z,67.15
2022-11-07T19:43:21.101Z,65.22
2022-11-07T19:46:04.299Z,72.10
2022-11-07T19:48:45.819Z,81.15
2022-11-07T19:51:32.203Z,96.50
2022-11-07T19:54:20.391Z,85.10
2022-11-07T19:57:03.514Z,90.30
2022-11-07T19:59:57.462Z,89.10
2022-11-07T20:03:04.636Z,86.43
2022-11-07T20:05:49.012Z,81.45
2022-11-07T20:08:36.413Z,74.07
2022-11-07T20:11:37.806Z,70.15
2022-11-07T20:14:18.815Z,74.15
2022-11-07T20:16:59.909Z,67.90
2022-11-07T20:19:48.982Z,65.35
2022-11-07T20:22:47.812Z,72.82
2022-11-07T20:25:36.643Z,65.97
2022-11-07T20:28:22.015Z,52.78
2022-11-07T20:31:13.832Z,59.47
2022-11-07T20:34:07.084Z,56.97
2022-11-07T20:37:02.540Z,58.67
2022-11-07T20:39:49.011Z,53.35
2022-11-07T20:42:34.555Z,50.13
2022-11-07T20:45:14.238Z,48.00
2022-11-07T20:48:03.048Z,42.95
2022-11-07T20:50:53.792Z,41.08
2022-11-07T20:56:23.234Z,41.08
2022-11-07T20:59:01.999Z,37.45
2022-11-07T21:01:50.949Z,60.22
2022-11-07T21:04:49.864Z,51.65
2022-11-07T21:07:47.287Z,63.58
2022-11-07T21:10:37.001Z,60.85
2022-11-07T21:13:22.179Z,58.58
2022-11-07T21:16:05.388Z,56.67
2022-11-07T21:18:55.140Z,55.15
2022-11-07T21:21:34.031Z,47.55
2022-11-07T21:24:23.020Z,53.88
2022-11-07T21:27:05.965Z,46.13
2022-11-07T21:32:42.064Z,39.72
2022-11-07T21:35:45.839Z,37.38
2022-11-07T21:38:34.998Z,38.85
2022-11-07T21:41:16.351Z,40.92
2022-11-07T21:44:07.047Z,41.72
2022-11-07T21:46:53.860Z,39.67
2022-11-07T21:49:39.991Z,39.55
2022-11-07T21:52:23.222Z,40.35
2022-11-07T21:55:09.054Z,41.03
2022-11-07T21:57:54.981Z,46.17
2022-11-07T22:00:37.233Z,50.40
2022-11-07T22:03:59.375Z,48.95
2022-11-07T22:06:45.742Z,50.25
2022-11-07T22:09:31.665Z,45.42
2022-11-07T22:12:15.006Z,51.05
2022-11-07T22:15:00.541Z,48.05
2022-11-07T22:17:48.207Z,62.83
2022-11-07T22:20:44.725Z,66.95
2022-11-07T22:23:30.077Z,82.03
2022-11-07T22:26:31.229Z,82.97
2022-11-07T22:29:14.979Z,66.90
2022-11-07T22:32:01.019Z,62.25
2022-11-07T22:34:47.006Z,57.95
2022-11-07T22:37:39.054Z,64.22
2022-11-07T22:40:24.391Z,74.25
2022-11-07T22:43:10.961Z,76.95
2022-11-07T22:46:00.275Z,60.83
2022-11-07T22:48:50.035Z,66.25
2022-11-07T22:51:34.971Z,67.93
2022-11-07T22:54:14.986Z,67.22
2022-11-07T22:57:00.392Z,66.00
2022-11-07T22:59:41.988Z,66.22
2022-11-07T23:02:35.103Z,72.78
2022-11-07T23:05:17.761Z,69.70
2022-11-07T23:07:59.110Z,64.10
2022-11-07T23:10:43.966Z,67.15
2022-11-07T23:13:28.331Z,76.25
2022-11-07T23:16:33.118Z,96.97
2022-11-07T23:19:14.457Z,80.30
2022-11-07T23:21:59.326Z,73.15
2022-11-07T23:24:57.081Z,83.45
2022-11-07T23:27:47.060Z,64.35
2022-11-07T23:30:39.184Z,73.13
2022-11-07T23:33:17.613Z,59.53
2022-11-07T23:36:04.930Z,55.25
2022-11-07T23:38:49.949Z,57.80
2022-11-07T23:41:35.059Z,60.83
2022-11-07T23:44:20.005Z,57.53
2022-11-07T23:47:22.701Z,59.63
2022-11-07T23:50:19.205Z,44.72
2022-11-07T23:53:26.790Z,56.25
2022-11-07T23:56:09.071Z,53.10
2022-11-07T23:59:14.965Z,61.03
